sensor_id;sensor_type;location;lat;lon;timestamp;temperature;humidity
74923;HTU21D;64715;44.760;37.678;2023-11-21T00:00:56;3.00;82.40
74923;HTU21D;64715;44.760;37.678;2023-11-21T00:01:58;3.00;82.34
74923;HTU21D;64715;44.760;37.678;2023-11-21T00:02:59;2.99;82.32
74923;HTU21D;64715;44.760;37.678;2023-11-21T00:03:59;3.00;82.32
74923;HTU21D;64715;44.760;37.678;2023-11-21T00:05:02;3.00;82.30
74923;HTU21D;64715;44.760;37.678;2023-11-21T00:06:04;3.01;82.28
74923;HTU21D;64715;44.760;37.678;2023-11-21T00:07:05;3.00;82.50
74923;HTU21D;64715;44.760;37.678;2023-11-21T00:08:07;3.00;82.54
74923;HTU21D;64715;44.760;37.678;2023-11-21T00:09:07;3.00;82.28
74923;HTU21D;64715;44.760;37.678;2023-11-21T00:10:10;2.99;82.39
74923;HTU21D;64715;44.760;37.678;2023-11-21T00:11:11;3.02;82.42
74923;HTU21D;64715;44.760;37.678;2023-11-21T00:12:12;3.00;82.41
74923;HTU21D;64715;44.760;37.678;2023-11-21T00:13:14;3.02;82.58
74923;HTU21D;64715;44.760;37.678;2023-11-21T00:14:15;3.01;82.31
74923;HTU21D;64715;44.760;37.678;2023-11-21T00:15:16;3.03;82.23
74923;HTU21D;64715;44.760;37.678;2023-11-21T00:16:17;3.02;82.26
74923;HTU21D;64715;44.760;37.678;2023-11-21T00:17:18;3.02;82.35
74923;HTU21D;64715;44.760;37.678;2023-11-21T00:18:20;3.04;82.51
74923;HTU21D;64715;44.760;37.678;2023-11-21T00:19:21;3.05;82.36
74923;HTU21D;64715;44.760;37.678;2023-11-21T00:20:22;3.08;82.54
74923;HTU21D;64715;44.760;37.678;2023-11-21T00:21:23;3.08;82.50
74923;HTU21D;64715;44.760;37.678;2023-11-21T00:22:24;3.09;82.61
74923;HTU21D;64715;44.760;37.678;2023-11-21T00:23:25;3.10;82.46
74923;HTU21D;64715;44.760;37.678;2023-11-21T00:24:26;3.10;82.72
74923;HTU21D;64715;44.760;37.678;2023-11-21T00:25:27;3.11;82.65
74923;HTU21D;64715;44.760;37.678;2023-11-21T00:26:27;3.11;82.48
74923;HTU21D;64715;44.760;37.678;2023-11-21T00:27:36;3.12;82.55
74923;HTU21D;64715;44.760;37.678;2023-11-21T00:28:37;3.13;82.55
74923;HTU21D;64715;44.760;37.678;2023-11-21T00:29:38;3.14;82.46
74923;HTU21D;64715;44.760;37.678;2023-11-21T00:30:39;3.14;82.58
74923;HTU21D;64715;44.760;37.678;2023-11-21T00:31:40;3.16;82.38
74923;HTU21D;64715;44.760;37.678;2023-11-21T00:32:41;3.16;82.41
74923;HTU21D;64715;44.760;37.678;2023-11-21T00:33:42;3.17;82.65
74923;HTU21D;64715;44.760;37.678;2023-11-21T00:34:43;3.17;82.62
74923;HTU21D;64715;44.760;37.678;2023-11-21T00:35:44;3.20;82.42
74923;HTU21D;64715;44.760;37.678;2023-11-21T00:36:45;3.21;82.46
74923;HTU21D;64715;44.760;37.678;2023-11-21T00:37:46;3.23;82.58
74923;HTU21D;64715;44.760;37.678;2023-11-21T00:38:50;3.24;82.58
74923;HTU21D;64715;44.760;37.678;2023-11-21T00:39:51;3.24;82.37
74923;HTU21D;64715;44.760;37.678;2023-11-21T00:40:52;3.23;82.46
74923;HTU21D;64715;44.760;37.678;2023-11-21T00:41:53;3.25;82.56
74923;HTU21D;64715;44.760;37.678;2023-11-21T00:42:54;3.26;82.43
74923;HTU21D;64715;44.760;37.678;2023-11-21T00:43:56;3.26;82.60
74923;HTU21D;64715;44.760;37.678;2023-11-21T00:44:57;3.25;82.41
74923;HTU21D;64715;44.760;37.678;2023-11-21T00:45:59;3.25;82.46
74923;HTU21D;64715;44.760;37.678;2023-11-21T00:47:00;3.27;82.39
74923;HTU21D;64715;44.760;37.678;2023-11-21T00:48:01;3.29;82.56
74923;HTU21D;64715;44.760;37.678;2023-11-21T00:49:02;3.30;82.61
74923;HTU21D;64715;44.760;37.678;2023-11-21T00:50:06;3.28;82.58
74923;HTU21D;64715;44.760;37.678;2023-11-21T00:51:07;3.29;82.59
74923;HTU21D;64715;44.760;37.678;2023-11-21T00:52:08;3.29;82.60
74923;HTU21D;64715;44.760;37.678;2023-11-21T00:53:09;3.30;82.49
74923;HTU21D;64715;44.760;37.678;2023-11-21T00:54:12;3.32;82.57
74923;HTU21D;64715;44.760;37.678;2023-11-21T00:55:14;3.32;82.51
74923;HTU21D;64715;44.760;37.678;2023-11-21T00:56:16;3.32;82.35
74923;HTU21D;64715;44.760;37.678;2023-11-21T00:57:17;3.34;82.44
74923;HTU21D;64715;44.760;37.678;2023-11-21T00:58:17;3.33;82.44
74923;HTU21D;64715;44.760;37.678;2023-11-21T00:59:18;3.34;82.44
74923;HTU21D;64715;44.760;37.678;2023-11-21T01:00:19;3.34;82.59
74923;HTU21D;64715;44.760;37.678;2023-11-21T01:01:21;3.36;82.53
74923;HTU21D;64715;44.760;37.678;2023-11-21T01:02:23;3.35;82.53
74923;HTU21D;64715;44.760;37.678;2023-11-21T01:03:24;3.38;82.44
74923;HTU21D;64715;44.760;37.678;2023-11-21T01:04:25;3.39;82.52
74923;HTU21D;64715;44.760;37.678;2023-11-21T01:05:26;3.39;82.48
74923;HTU21D;64715;44.760;37.678;2023-11-21T01:06:27;3.38;82.45
74923;HTU21D;64715;44.760;37.678;2023-11-21T01:07:28;3.39;82.53
74923;HTU21D;64715;44.760;37.678;2023-11-21T01:08:29;3.38;82.64
74923;HTU21D;64715;44.760;37.678;2023-11-21T01:09:31;3.38;82.54
74923;HTU21D;64715;44.760;37.678;2023-11-21T01:10:32;3.38;82.57
74923;HTU21D;64715;44.760;37.678;2023-11-21T01:11:35;3.38;82.52
74923;HTU21D;64715;44.760;37.678;2023-11-21T01:12:38;3.38;82.55
74923;HTU21D;64715;44.760;37.678;2023-11-21T01:13:40;3.40;82.43
74923;HTU21D;64715;44.760;37.678;2023-11-21T01:14:41;3.40;82.58
74923;HTU21D;64715;44.760;37.678;2023-11-21T01:15:42;3.40;82.27
74923;HTU21D;64715;44.760;37.678;2023-11-21T01:16:43;3.40;82.56
74923;HTU21D;64715;44.760;37.678;2023-11-21T01:17:44;3.41;82.54
74923;HTU21D;64715;44.760;37.678;2023-11-21T01:18:45;3.41;82.65
74923;HTU21D;64715;44.760;37.678;2023-11-21T01:19:47;3.42;82.52
74923;HTU21D;64715;44.760;37.678;2023-11-21T01:20:48;3.41;82.65
74923;HTU21D;64715;44.760;37.678;2023-11-21T01:21:48;3.42;82.39
74923;HTU21D;64715;44.760;37.678;2023-11-21T01:22:49;3.40;82.34
74923;HTU21D;64715;44.760;37.678;2023-11-21T01:23:50;3.41;82.62
74923;HTU21D;64715;44.760;37.678;2023-11-21T01:24:53;3.40;82.51
74923;HTU21D;64715;44.760;37.678;2023-11-21T01:25:56;3.41;82.49
74923;HTU21D;64715;44.760;37.678;2023-11-21T01:26:57;3.40;82.57
74923;HTU21D;64715;44.760;37.678;2023-11-21T01:27:58;3.40;82.54
74923;HTU21D;64715;44.760;37.678;2023-11-21T01:28:59;3.40;82.38
74923;HTU21D;64715;44.760;37.678;2023-11-21T01:30:01;3.40;82.52
74923;HTU21D;64715;44.760;37.678;2023-11-21T01:31:02;3.41;82.39
74923;HTU21D;64715;44.760;37.678;2023-11-21T01:32:03;3.41;82.43
74923;HTU21D;64715;44.760;37.678;2023-11-21T01:33:04;3.41;82.49
74923;HTU21D;64715;44.760;37.678;2023-11-21T01:34:05;3.39;82.69
74923;HTU21D;64715;44.760;37.678;2023-11-21T01:35:06;3.41;82.46
74923;HTU21D;64715;44.760;37.678;2023-11-21T01:36:08;3.41;82.51
74923;HTU21D;64715;44.760;37.678;2023-11-21T01:37:09;3.42;82.42
74923;HTU21D;64715;44.760;37.678;2023-11-21T01:38:12;3.41;82.47
74923;HTU21D;64715;44.760;37.678;2023-11-21T01:39:13;3.40;82.60
74923;HTU21D;64715;44.760;37.678;2023-11-21T01:40:16;3.41;82.68
74923;HTU21D;64715;44.760;37.678;2023-11-21T01:41:17;3.41;82.65
74923;HTU21D;64715;44.760;37.678;2023-11-21T01:42:18;3.42;82.63
74923;HTU21D;64715;44.760;37.678;2023-11-21T01:43:19;3.41;82.46
74923;HTU21D;64715;44.760;37.678;2023-11-21T01:44:20;3.42;82.45
74923;HTU21D;64715;44.760;37.678;2023-11-21T01:45:21;3.42;82.69
74923;HTU21D;64715;44.760;37.678;2023-11-21T01:46:23;3.41;82.52
74923;HTU21D;64715;44.760;37.678;2023-11-21T01:47:25;3.42;82.45
74923;HTU21D;64715;44.760;37.678;2023-11-21T01:48:27;3.42;82.63
74923;HTU21D;64715;44.760;37.678;2023-11-21T01:49:28;3.41;82.84
74923;HTU21D;64715;44.760;37.678;2023-11-21T01:50:29;3.43;82.58
74923;HTU21D;64715;44.760;37.678;2023-11-21T01:51:30;3.43;82.81
74923;HTU21D;64715;44.760;37.678;2023-11-21T01:52:33;3.45;82.63
74923;HTU21D;64715;44.760;37.678;2023-11-21T01:53:35;3.43;82.58
74923;HTU21D;64715;44.760;37.678;2023-11-21T01:54:37;3.43;82.77
74923;HTU21D;64715;44.760;37.678;2023-11-21T01:55:40;3.43;82.61
74923;HTU21D;64715;44.760;37.678;2023-11-21T01:56:41;3.44;82.40
74923;HTU21D;64715;44.760;37.678;2023-11-21T01:57:42;3.43;82.48
74923;HTU21D;64715;44.760;37.678;2023-11-21T01:58:44;3.43;82.75
74923;HTU21D;64715;44.760;37.678;2023-11-21T01:59:48;3.43;82.55
74923;HTU21D;64715;44.760;37.678;2023-11-21T02:00:50;3.42;82.73
74923;HTU21D;64715;44.760;37.678;2023-11-21T02:01:52;3.45;82.50
74923;HTU21D;64715;44.760;37.678;2023-11-21T02:02:53;3.44;82.55
74923;HTU21D;64715;44.760;37.678;2023-11-21T02:03:54;3.43;82.57
74923;HTU21D;64715;44.760;37.678;2023-11-21T02:04:56;3.42;82.58
74923;HTU21D;64715;44.760;37.678;2023-11-21T02:05:57;3.44;82.68
74923;HTU21D;64715;44.760;37.678;2023-11-21T02:07:00;3.43;82.64
74923;HTU21D;64715;44.760;37.678;2023-11-21T02:08:01;3.44;82.80
74923;HTU21D;64715;44.760;37.678;2023-11-21T02:09:03;3.44;82.74
74923;HTU21D;64715;44.760;37.678;2023-11-21T02:10:07;3.43;82.60
74923;HTU21D;64715;44.760;37.678;2023-11-21T02:11:08;3.45;82.69
74923;HTU21D;64715;44.760;37.678;2023-11-21T02:12:10;3.44;82.46
74923;HTU21D;64715;44.760;37.678;2023-11-21T02:13:11;3.45;82.68
74923;HTU21D;64715;44.760;37.678;2023-11-21T02:14:12;3.44;82.37
74923;HTU21D;64715;44.760;37.678;2023-11-21T02:15:14;3.45;82.55
74923;HTU21D;64715;44.760;37.678;2023-11-21T02:16:20;3.46;82.57
74923;HTU21D;64715;44.760;37.678;2023-11-21T02:17:23;3.45;82.78
74923;HTU21D;64715;44.760;37.678;2023-11-21T02:18:24;3.44;82.46
74923;HTU21D;64715;44.760;37.678;2023-11-21T02:19:25;3.44;82.71
74923;HTU21D;64715;44.760;37.678;2023-11-21T02:20:26;3.46;82.51
74923;HTU21D;64715;44.760;37.678;2023-11-21T02:21:30;3.46;82.55
74923;HTU21D;64715;44.760;37.678;2023-11-21T02:22:32;3.46;82.66
74923;HTU21D;64715;44.760;37.678;2023-11-21T02:23:36;3.46;82.64
74923;HTU21D;64715;44.760;37.678;2023-11-21T02:24:37;3.45;82.75
74923;HTU21D;64715;44.760;37.678;2023-11-21T02:25:38;3.46;82.62
74923;HTU21D;64715;44.760;37.678;2023-11-21T02:26:39;3.48;82.65
74923;HTU21D;64715;44.760;37.678;2023-11-21T02:27:41;3.47;82.71
74923;HTU21D;64715;44.760;37.678;2023-11-21T02:28:43;3.46;82.57
74923;HTU21D;64715;44.760;37.678;2023-11-21T02:29:44;3.49;82.68
74923;HTU21D;64715;44.760;37.678;2023-11-21T02:30:45;3.48;82.73
74923;HTU21D;64715;44.760;37.678;2023-11-21T02:31:51;3.48;82.56
74923;HTU21D;64715;44.760;37.678;2023-11-21T02:32:52;3.49;82.68
74923;HTU21D;64715;44.760;37.678;2023-11-21T02:33:53;3.49;82.60
74923;HTU21D;64715;44.760;37.678;2023-11-21T02:34:55;3.49;82.59
74923;HTU21D;64715;44.760;37.678;2023-11-21T02:35:56;3.49;82.60
74923;HTU21D;64715;44.760;37.678;2023-11-21T02:36:57;3.50;82.66
74923;HTU21D;64715;44.760;37.678;2023-11-21T02:37:58;3.50;82.55
74923;HTU21D;64715;44.760;37.678;2023-11-21T02:38:59;3.50;82.67
74923;HTU21D;64715;44.760;37.678;2023-11-21T02:40:01;3.52;82.62
74923;HTU21D;64715;44.760;37.678;2023-11-21T02:41:04;3.50;82.55
74923;HTU21D;64715;44.760;37.678;2023-11-21T02:42:07;3.50;82.63
74923;HTU21D;64715;44.760;37.678;2023-11-21T02:43:09;3.52;82.62
74923;HTU21D;64715;44.760;37.678;2023-11-21T02:44:10;3.50;82.68
74923;HTU21D;64715;44.760;37.678;2023-11-21T02:45:12;3.49;82.59
74923;HTU21D;64715;44.760;37.678;2023-11-21T02:46:15;3.50;82.66
74923;HTU21D;64715;44.760;37.678;2023-11-21T02:47:15;3.50;82.74
74923;HTU21D;64715;44.760;37.678;2023-11-21T02:48:16;3.52;82.86
74923;HTU21D;64715;44.760;37.678;2023-11-21T02:49:17;3.53;82.61
74923;HTU21D;64715;44.760;37.678;2023-11-21T02:50:18;3.53;82.73
74923;HTU21D;64715;44.760;37.678;2023-11-21T02:51:20;3.53;82.58
74923;HTU21D;64715;44.760;37.678;2023-11-21T02:52:21;3.50;82.69
74923;HTU21D;64715;44.760;37.678;2023-11-21T02:53:22;3.53;82.60
74923;HTU21D;64715;44.760;37.678;2023-11-21T02:54:25;3.53;82.65
74923;HTU21D;64715;44.760;37.678;2023-11-21T02:55:28;3.52;82.72
74923;HTU21D;64715;44.760;37.678;2023-11-21T02:56:29;3.52;82.57
74923;HTU21D;64715;44.760;37.678;2023-11-21T02:57:30;3.53;82.51
74923;HTU21D;64715;44.760;37.678;2023-11-21T02:58:31;3.53;82.63
74923;HTU21D;64715;44.760;37.678;2023-11-21T02:59:32;3.52;82.53
74923;HTU21D;64715;44.760;37.678;2023-11-21T03:00:33;3.50;82.63
74923;HTU21D;64715;44.760;37.678;2023-11-21T03:01:34;3.53;82.86
74923;HTU21D;64715;44.760;37.678;2023-11-21T03:02:35;3.52;82.67
74923;HTU21D;64715;44.760;37.678;2023-11-21T03:03:39;3.50;82.52
74923;HTU21D;64715;44.760;37.678;2023-11-21T03:04:41;3.53;82.66
74923;HTU21D;64715;44.760;37.678;2023-11-21T03:05:43;3.54;82.65
74923;HTU21D;64715;44.760;37.678;2023-11-21T03:06:44;3.54;82.55
74923;HTU21D;64715;44.760;37.678;2023-11-21T03:07:46;3.54;82.73
74923;HTU21D;64715;44.760;37.678;2023-11-21T03:08:47;3.56;82.56
74923;HTU21D;64715;44.760;37.678;2023-11-21T03:09:48;3.54;82.73
74923;HTU21D;64715;44.760;37.678;2023-11-21T03:10:49;3.54;82.74
74923;HTU21D;64715;44.760;37.678;2023-11-21T03:11:50;3.56;82.53
74923;HTU21D;64715;44.760;37.678;2023-11-21T03:12:52;3.56;82.65
74923;HTU21D;64715;44.760;37.678;2023-11-21T03:13:53;3.55;82.79
74923;HTU21D;64715;44.760;37.678;2023-11-21T03:14:54;3.55;82.68
74923;HTU21D;64715;44.760;37.678;2023-11-21T03:15:56;3.57;82.61
74923;HTU21D;64715;44.760;37.678;2023-11-21T03:16:57;3.56;82.74
74923;HTU21D;64715;44.760;37.678;2023-11-21T03:17:58;3.57;82.75
74923;HTU21D;64715;44.760;37.678;2023-11-21T03:18:59;3.56;82.63
74923;HTU21D;64715;44.760;37.678;2023-11-21T03:20:00;3.55;82.66
74923;HTU21D;64715;44.760;37.678;2023-11-21T03:21:01;3.56;82.71
74923;HTU21D;64715;44.760;37.678;2023-11-21T03:22:02;3.55;82.55
74923;HTU21D;64715;44.760;37.678;2023-11-21T03:23:05;3.57;82.65
74923;HTU21D;64715;44.760;37.678;2023-11-21T03:24:06;3.56;82.75
74923;HTU21D;64715;44.760;37.678;2023-11-21T03:25:08;3.56;82.72
74923;HTU21D;64715;44.760;37.678;2023-11-21T03:26:12;3.56;82.79
74923;HTU21D;64715;44.760;37.678;2023-11-21T03:27:13;3.56;82.81
74923;HTU21D;64715;44.760;37.678;2023-11-21T03:28:14;3.55;82.87
74923;HTU21D;64715;44.760;37.678;2023-11-21T03:29:15;3.56;82.59
74923;HTU21D;64715;44.760;37.678;2023-11-21T03:30:16;3.57;82.69
74923;HTU21D;64715;44.760;37.678;2023-11-21T03:31:17;3.56;82.77
74923;HTU21D;64715;44.760;37.678;2023-11-21T03:32:19;3.56;82.57
74923;HTU21D;64715;44.760;37.678;2023-11-21T03:33:20;3.56;82.59
74923;HTU21D;64715;44.760;37.678;2023-11-21T03:34:26;3.57;82.80
74923;HTU21D;64715;44.760;37.678;2023-11-21T03:35:29;3.56;82.70
74923;HTU21D;64715;44.760;37.678;2023-11-21T03:36:30;3.56;82.57
74923;HTU21D;64715;44.760;37.678;2023-11-21T03:37:31;3.55;82.67
74923;HTU21D;64715;44.760;37.678;2023-11-21T03:38:32;3.56;82.47
74923;HTU21D;64715;44.760;37.678;2023-11-21T03:39:33;3.56;82.73
74923;HTU21D;64715;44.760;37.678;2023-11-21T03:40:33;3.55;82.49
74923;HTU21D;64715;44.760;37.678;2023-11-21T03:41:35;3.56;82.64
74923;HTU21D;64715;44.760;37.678;2023-11-21T03:42:36;3.56;82.65
74923;HTU21D;64715;44.760;37.678;2023-11-21T03:43:37;3.56;82.68
74923;HTU21D;64715;44.760;37.678;2023-11-21T03:44:39;3.56;82.84
74923;HTU21D;64715;44.760;37.678;2023-11-21T03:45:40;3.57;82.69
74923;HTU21D;64715;44.760;37.678;2023-11-21T03:46:41;3.57;82.65
74923;HTU21D;64715;44.760;37.678;2023-11-21T03:47:44;3.56;82.65
74923;HTU21D;64715;44.760;37.678;2023-11-21T03:48:45;3.57;82.92
74923;HTU21D;64715;44.760;37.678;2023-11-21T03:49:46;3.57;82.61
74923;HTU21D;64715;44.760;37.678;2023-11-21T03:50:50;3.56;82.71
74923;HTU21D;64715;44.760;37.678;2023-11-21T03:51:51;3.57;82.77
74923;HTU21D;64715;44.760;37.678;2023-11-21T03:52:52;3.58;82.73
74923;HTU21D;64715;44.760;37.678;2023-11-21T03:53:53;3.56;82.94
74923;HTU21D;64715;44.760;37.678;2023-11-21T03:54:54;3.57;82.85
74923;HTU21D;64715;44.760;37.678;2023-11-21T03:55:55;3.59;82.71
74923;HTU21D;64715;44.760;37.678;2023-11-21T03:56:57;3.58;82.49
74923;HTU21D;64715;44.760;37.678;2023-11-21T03:57:58;3.59;82.64
74923;HTU21D;64715;44.760;37.678;2023-11-21T03:58:59;3.59;82.65
74923;HTU21D;64715;44.760;37.678;2023-11-21T04:00:00;3.58;82.61
74923;HTU21D;64715;44.760;37.678;2023-11-21T04:01:01;3.58;82.68
74923;HTU21D;64715;44.760;37.678;2023-11-21T04:02:02;3.59;82.70
74923;HTU21D;64715;44.760;37.678;2023-11-21T04:03:03;3.59;82.75
74923;HTU21D;64715;44.760;37.678;2023-11-21T04:04:05;3.59;82.71
74923;HTU21D;64715;44.760;37.678;2023-11-21T04:05:06;3.59;82.68
74923;HTU21D;64715;44.760;37.678;2023-11-21T04:06:08;3.59;82.81
74923;HTU21D;64715;44.760;37.678;2023-11-21T04:07:09;3.59;82.60
74923;HTU21D;64715;44.760;37.678;2023-11-21T04:08:09;3.60;82.67
74923;HTU21D;64715;44.760;37.678;2023-11-21T04:09:10;3.61;82.67
74923;HTU21D;64715;44.760;37.678;2023-11-21T04:10:11;3.61;82.52
74923;HTU21D;64715;44.760;37.678;2023-11-21T04:11:13;3.62;82.55
74923;HTU21D;64715;44.760;37.678;2023-11-21T04:12:14;3.60;82.67
74923;HTU21D;64715;44.760;37.678;2023-11-21T04:13:15;3.62;82.68
74923;HTU21D;64715;44.760;37.678;2023-11-21T04:14:16;3.60;82.75
74923;HTU21D;64715;44.760;37.678;2023-11-21T04:15:17;3.60;82.78
74923;HTU21D;64715;44.760;37.678;2023-11-21T04:16:18;3.60;82.71
74923;HTU21D;64715;44.760;37.678;2023-11-21T04:17:19;3.60;82.84
74923;HTU21D;64715;44.760;37.678;2023-11-21T04:18:20;3.59;82.65
74923;HTU21D;64715;44.760;37.678;2023-11-21T04:19:21;3.60;82.71
74923;HTU21D;64715;44.760;37.678;2023-11-21T04:20:22;3.60;82.76
74923;HTU21D;64715;44.760;37.678;2023-11-21T04:21:24;3.59;82.64
74923;HTU21D;64715;44.760;37.678;2023-11-21T04:22:25;3.59;82.76
74923;HTU21D;64715;44.760;37.678;2023-11-21T04:23:26;3.60;82.64
74923;HTU21D;64715;44.760;37.678;2023-11-21T04:24:27;3.59;82.91
74923;HTU21D;64715;44.760;37.678;2023-11-21T04:25:28;3.60;82.72
74923;HTU21D;64715;44.760;37.678;2023-11-21T04:26:29;3.60;82.68
74923;HTU21D;64715;44.760;37.678;2023-11-21T04:27:30;3.59;82.69
74923;HTU21D;64715;44.760;37.678;2023-11-21T04:28:31;3.60;82.78
74923;HTU21D;64715;44.760;37.678;2023-11-21T04:29:32;3.61;82.81
74923;HTU21D;64715;44.760;37.678;2023-11-21T04:30:33;3.60;82.75
74923;HTU21D;64715;44.760;37.678;2023-11-21T04:31:34;3.60;82.64
74923;HTU21D;64715;44.760;37.678;2023-11-21T04:32:35;3.62;82.65
74923;HTU21D;64715;44.760;37.678;2023-11-21T04:33:36;3.61;82.64
74923;HTU21D;64715;44.760;37.678;2023-11-21T04:34:37;3.61;82.75
74923;HTU21D;64715;44.760;37.678;2023-11-21T04:35:38;3.61;82.64
74923;HTU21D;64715;44.760;37.678;2023-11-21T04:36:39;3.60;82.64
74923;HTU21D;64715;44.760;37.678;2023-11-21T04:37:40;3.60;82.73
74923;HTU21D;64715;44.760;37.678;2023-11-21T04:38:41;3.60;82.83
74923;HTU21D;64715;44.760;37.678;2023-11-21T04:39:42;3.59;82.67
74923;HTU21D;64715;44.760;37.678;2023-11-21T04:40:43;3.60;82.75
74923;HTU21D;64715;44.760;37.678;2023-11-21T04:41:44;3.60;82.71
74923;HTU21D;64715;44.760;37.678;2023-11-21T04:42:45;3.61;82.91
74923;HTU21D;64715;44.760;37.678;2023-11-21T04:43:47;3.60;82.76
74923;HTU21D;64715;44.760;37.678;2023-11-21T04:44:49;3.60;82.71
74923;HTU21D;64715;44.760;37.678;2023-11-21T04:45:50;3.61;82.66
74923;HTU21D;64715;44.760;37.678;2023-11-21T04:46:50;3.62;82.76
74923;HTU21D;64715;44.760;37.678;2023-11-21T04:47:51;3.62;82.76
74923;HTU21D;64715;44.760;37.678;2023-11-21T04:48:53;3.63;82.52
74923;HTU21D;64715;44.760;37.678;2023-11-21T04:49:54;3.63;82.78
74923;HTU21D;64715;44.760;37.678;2023-11-21T04:50:55;3.64;82.78
74923;HTU21D;64715;44.760;37.678;2023-11-21T04:51:56;3.65;82.62
74923;HTU21D;64715;44.760;37.678;2023-11-21T04:52:57;3.63;82.87
74923;HTU21D;64715;44.760;37.678;2023-11-21T04:53:58;3.64;82.68
74923;HTU21D;64715;44.760;37.678;2023-11-21T04:54:59;3.63;82.75
74923;HTU21D;64715;44.760;37.678;2023-11-21T04:56:02;3.63;82.78
74923;HTU21D;64715;44.760;37.678;2023-11-21T04:57:04;3.65;82.82
74923;HTU21D;64715;44.760;37.678;2023-11-21T04:58:05;3.63;82.93
74923;HTU21D;64715;44.760;37.678;2023-11-21T04:59:06;3.63;82.87
74923;HTU21D;64715;44.760;37.678;2023-11-21T05:00:09;3.67;82.76
74923;HTU21D;64715;44.760;37.678;2023-11-21T05:01:10;3.67;82.74
74923;HTU21D;64715;44.760;37.678;2023-11-21T05:02:12;3.67;82.73
74923;HTU21D;64715;44.760;37.678;2023-11-21T05:03:13;3.68;82.85
74923;HTU21D;64715;44.760;37.678;2023-11-21T05:04:14;3.67;82.99
74923;HTU21D;64715;44.760;37.678;2023-11-21T05:05:15;3.67;82.63
74923;HTU21D;64715;44.760;37.678;2023-11-21T05:06:16;3.67;82.79
74923;HTU21D;64715;44.760;37.678;2023-11-21T05:07:17;3.67;82.91
74923;HTU21D;64715;44.760;37.678;2023-11-21T05:08:19;3.67;82.75
74923;HTU21D;64715;44.760;37.678;2023-11-21T05:09:21;3.69;82.67
74923;HTU21D;64715;44.760;37.678;2023-11-21T05:10:22;3.65;82.57
74923;HTU21D;64715;44.760;37.678;2023-11-21T05:11:27;3.68;82.77
74923;HTU21D;64715;44.760;37.678;2023-11-21T05:12:31;3.68;82.82
74923;HTU21D;64715;44.760;37.678;2023-11-21T05:13:37;3.68;82.89
74923;HTU21D;64715;44.760;37.678;2023-11-21T05:14:39;3.65;82.67
74923;HTU21D;64715;44.760;37.678;2023-11-21T05:15:40;3.67;82.85
74923;HTU21D;64715;44.760;37.678;2023-11-21T05:16:41;3.68;82.65
74923;HTU21D;64715;44.760;37.678;2023-11-21T05:17:44;3.67;82.86
74923;HTU21D;64715;44.760;37.678;2023-11-21T05:18:46;3.67;82.84
74923;HTU21D;64715;44.760;37.678;2023-11-21T05:19:49;3.68;82.97
74923;HTU21D;64715;44.760;37.678;2023-11-21T05:20:50;3.69;82.81
74923;HTU21D;64715;44.760;37.678;2023-11-21T05:21:51;3.69;82.81
74923;HTU21D;64715;44.760;37.678;2023-11-21T05:22:51;3.68;82.85
74923;HTU21D;64715;44.760;37.678;2023-11-21T05:23:53;3.69;82.85
74923;HTU21D;64715;44.760;37.678;2023-11-21T05:24:54;3.69;82.78
74923;HTU21D;64715;44.760;37.678;2023-11-21T05:25:55;3.69;82.71
74923;HTU21D;64715;44.760;37.678;2023-11-21T05:26:57;3.70;82.82
74923;HTU21D;64715;44.760;37.678;2023-11-21T05:27:58;3.68;82.74
74923;HTU21D;64715;44.760;37.678;2023-11-21T05:29:01;3.70;82.78
74923;HTU21D;64715;44.760;37.678;2023-11-21T05:30:04;3.71;82.60
74923;HTU21D;64715;44.760;37.678;2023-11-21T05:31:12;3.71;82.71
74923;HTU21D;64715;44.760;37.678;2023-11-21T05:32:13;3.71;82.92
74923;HTU21D;64715;44.760;37.678;2023-11-21T05:33:14;3.70;82.68
74923;HTU21D;64715;44.760;37.678;2023-11-21T05:34:15;3.72;83.00
74923;HTU21D;64715;44.760;37.678;2023-11-21T05:35:16;3.71;82.84
74923;HTU21D;64715;44.760;37.678;2023-11-21T05:36:17;3.71;82.88
74923;HTU21D;64715;44.760;37.678;2023-11-21T05:37:18;3.72;82.56
74923;HTU21D;64715;44.760;37.678;2023-11-21T05:38:18;3.73;83.01
74923;HTU21D;64715;44.760;37.678;2023-11-21T05:39:22;3.74;82.77
74923;HTU21D;64715;44.760;37.678;2023-11-21T05:40:23;3.74;82.84
74923;HTU21D;64715;44.760;37.678;2023-11-21T05:41:24;3.75;82.64
74923;HTU21D;64715;44.760;37.678;2023-11-21T05:42:26;3.74;82.74
74923;HTU21D;64715;44.760;37.678;2023-11-21T05:43:27;3.75;82.88
74923;HTU21D;64715;44.760;37.678;2023-11-21T05:44:30;3.74;82.70
74923;HTU21D;64715;44.760;37.678;2023-11-21T05:45:31;3.74;82.67
74923;HTU21D;64715;44.760;37.678;2023-11-21T05:46:32;3.74;82.95
74923;HTU21D;64715;44.760;37.678;2023-11-21T05:47:33;3.76;82.68
74923;HTU21D;64715;44.760;37.678;2023-11-21T05:48:35;3.77;82.91
74923;HTU21D;64715;44.760;37.678;2023-11-21T05:49:37;3.78;82.82
74923;HTU21D;64715;44.760;37.678;2023-11-21T05:50:39;3.78;82.91
74923;HTU21D;64715;44.760;37.678;2023-11-21T05:51:40;3.78;82.85
74923;HTU21D;64715;44.760;37.678;2023-11-21T05:52:44;3.79;82.99
74923;HTU21D;64715;44.760;37.678;2023-11-21T05:53:49;3.79;82.96
74923;HTU21D;64715;44.760;37.678;2023-11-21T05:54:49;3.78;83.04
74923;HTU21D;64715;44.760;37.678;2023-11-21T05:55:50;3.79;82.66
74923;HTU21D;64715;44.760;37.678;2023-11-21T05:56:52;3.80;82.87
74923;HTU21D;64715;44.760;37.678;2023-11-21T05:57:53;3.80;82.80
74923;HTU21D;64715;44.760;37.678;2023-11-21T05:58:54;3.80;82.90
74923;HTU21D;64715;44.760;37.678;2023-11-21T05:59:55;3.82;82.81
74923;HTU21D;64715;44.760;37.678;2023-11-21T06:00:57;3.82;82.81
74923;HTU21D;64715;44.760;37.678;2023-11-21T06:01:58;3.82;82.84
74923;HTU21D;64715;44.760;37.678;2023-11-21T06:02:59;3.82;82.97
74923;HTU21D;64715;44.760;37.678;2023-11-21T06:04:00;3.83;82.93
74923;HTU21D;64715;44.760;37.678;2023-11-21T06:05:01;3.84;82.93
74923;HTU21D;64715;44.760;37.678;2023-11-21T06:06:05;3.84;82.81
74923;HTU21D;64715;44.760;37.678;2023-11-21T06:07:07;3.85;82.87
74923;HTU21D;64715;44.760;37.678;2023-11-21T06:08:08;3.85;82.80
74923;HTU21D;64715;44.760;37.678;2023-11-21T06:09:12;3.87;82.99
74923;HTU21D;64715;44.760;37.678;2023-11-21T06:10:14;3.86;82.79
74923;HTU21D;64715;44.760;37.678;2023-11-21T06:11:15;3.86;82.93
74923;HTU21D;64715;44.760;37.678;2023-11-21T06:12:19;3.87;83.11
74923;HTU21D;64715;44.760;37.678;2023-11-21T06:13:21;3.86;82.86
74923;HTU21D;64715;44.760;37.678;2023-11-21T06:14:25;3.87;82.74
74923;HTU21D;64715;44.760;37.678;2023-11-21T06:15:25;3.87;82.69
74923;HTU21D;64715;44.760;37.678;2023-11-21T06:16:26;3.86;82.89
74923;HTU21D;64715;44.760;37.678;2023-11-21T06:17:28;3.86;82.82
74923;HTU21D;64715;44.760;37.678;2023-11-21T06:18:29;3.85;82.78
74923;HTU21D;64715;44.760;37.678;2023-11-21T06:19:30;3.87;82.69
74923;HTU21D;64715;44.760;37.678;2023-11-21T06:20:32;3.87;82.76
74923;HTU21D;64715;44.760;37.678;2023-11-21T06:21:32;3.88;82.71
74923;HTU21D;64715;44.760;37.678;2023-11-21T06:22:38;3.88;82.89